createdAt,value
2022-07-29T00:00:02.870Z,19.93
2022-07-29T00:01:03.093Z,19.93
2022-07-29T00:02:02.756Z,19.94
2022-07-29T00:03:02.840Z,19.91
2022-07-29T00:04:02.780Z,19.93
2022-07-29T00:05:02.466Z,19.90
2022-07-29T00:06:02.679Z,19.87
2022-07-29T00:07:03.266Z,19.88
2022-07-29T00:08:02.925Z,19.88
2022-07-29T00:09:03.271Z,19.90
2022-07-29T00:10:02.848Z,19.93
2022-07-29T00:11:03.099Z,19.91
2022-07-29T00:12:03.312Z,19.93
2022-07-29T00:13:03.536Z,19.93
2022-07-29T00:14:03.780Z,19.91
2022-07-29T00:15:03.711Z,19.90
2022-07-29T00:16:04.835Z,19.91
2022-07-29T00:17:02.779Z,19.93
2022-07-29T00:18:02.843Z,19.91
2022-07-29T00:19:02.934Z,19.88
2022-07-29T00:20:02.951Z,19.90
2022-07-29T00:21:02.549Z,19.88
2022-07-29T00:22:02.839Z,19.88
2022-07-29T00:23:03.146Z,19.88
2022-07-29T00:24:02.817Z,19.90
2022-07-29T00:25:03.007Z,19.93
2022-07-29T00:26:02.669Z,19.93
2022-07-29T00:27:02.949Z,19.93
2022-07-29T00:28:03.223Z,19.95
2022-07-29T00:29:32.584Z,19.95
2022-07-29T00:30:03.399Z,19.97
2022-07-29T00:31:03.218Z,19.98
2022-07-29T00:32:04.091Z,19.98
2022-07-29T00:33:08.058Z,19.97
2022-07-29T00:34:03.993Z,19.94
2022-07-29T00:35:03.841Z,19.95
2022-07-29T00:36:03.453Z,19.91
2022-07-29T00:37:02.797Z,19.91
2022-07-29T00:38:03.101Z,19.90
2022-07-29T00:39:02.752Z,19.93
2022-07-29T00:40:02.840Z,19.94
2022-07-29T00:41:03.186Z,19.94
2022-07-29T00:42:03.469Z,19.94
2022-07-29T00:43:03.754Z,19.91
2022-07-29T00:44:03.288Z,19.88
2022-07-29T00:45:03.592Z,19.88
2022-07-29T00:46:03.451Z,19.88
2022-07-29T00:47:02.842Z,19.91
2022-07-29T00:48:02.676Z,19.91
2022-07-29T00:49:03.029Z,19.90
2022-07-29T00:50:02.775Z,19.90
2022-07-29T00:51:03.040Z,19.93
2022-07-29T00:52:03.332Z,19.91
2022-07-29T00:53:03.210Z,19.90
2022-07-29T00:54:03.503Z,19.88
2022-07-29T00:55:08.241Z,19.87
2022-07-29T00:56:03.130Z,19.83
2022-07-29T00:57:03.432Z,19.79
2022-07-29T00:58:03.706Z,19.83
2022-07-29T00:59:03.283Z,19.83
2022-07-29T01:00:03.454Z,19.80
2022-07-29T01:01:03.778Z,19.79
2022-07-29T01:02:03.924Z,19.78
2022-07-29T01:03:04.522Z,19.80
2022-07-29T01:04:04.105Z,19.80
2022-07-29T01:05:04.430Z,19.79
2022-07-29T01:06:04.248Z,19.79
2022-07-29T01:07:03.634Z,19.79
2022-07-29T01:08:03.332Z,19.80
2022-07-29T01:09:03.646Z,19.79
2022-07-29T01:10:03.902Z,19.79
2022-07-29T01:11:03.531Z,19.83
2022-07-29T01:12:03.603Z,19.75
2022-07-29T01:13:03.726Z,19.80
2022-07-29T01:14:03.993Z,19.79
2022-07-29T01:15:03.827Z,19.83
2022-07-29T01:16:03.579Z,19.86
2022-07-29T01:17:04.006Z,19.88
2022-07-29T01:18:03.922Z,19.87
2022-07-29T01:19:03.708Z,19.86
2022-07-29T01:20:03.889Z,19.86
2022-07-29T01:21:04.163Z,19.86
2022-07-29T01:22:04.079Z,19.84
2022-07-29T01:23:04.332Z,19.83
2022-07-29T01:24:03.899Z,19.83
2022-07-29T01:25:04.188Z,19.83
2022-07-29T01:26:03.789Z,19.79
2022-07-29T01:27:03.608Z,19.79
2022-07-29T01:28:04.043Z,19.80
2022-07-29T01:29:07.443Z,19.78
2022-07-29T01:30:05.228Z,19.80
2022-07-29T01:31:03.974Z,19.78
2022-07-29T01:32:04.266Z,19.76
2022-07-29T01:33:03.910Z,19.73
2022-07-29T01:34:04.096Z,19.68
2022-07-29T01:35:03.813Z,19.72
2022-07-29T01:36:04.462Z,19.66
2022-07-29T01:37:03.513Z,19.63
2022-07-29T01:38:03.569Z,19.61
2022-07-29T01:39:03.465Z,19.57
2022-07-29T01:40:03.847Z,19.57
2022-07-29T01:41:03.667Z,19.58
2022-07-29T01:42:03.781Z,19.54
2022-07-29T01:43:04.194Z,19.55
2022-07-29T01:44:04.022Z,19.55
2022-07-29T01:45:04.149Z,19.57
2022-07-29T01:46:03.615Z,19.54
2022-07-29T01:47:03.538Z,19.54
2022-07-29T01:48:03.197Z,19.53
2022-07-29T01:49:03.379Z,19.47
2022-07-29T01:50:03.719Z,19.46
2022-07-29T01:51:03.417Z,19.40
2022-07-29T01:52:04.107Z,19.39
2022-07-29T01:53:03.698Z,19.38
2022-07-29T01:54:04.048Z,19.39
2022-07-29T01:55:03.698Z,19.40
2022-07-29T01:56:04.212Z,19.35
2022-07-29T01:57:03.233Z,19.35
2022-07-29T01:58:03.336Z,19.33
2022-07-29T01:59:03.250Z,19.36
2022-07-29T02:00:03.597Z,19.40
2022-07-29T02:01:03.326Z,19.39
2022-07-29T02:02:04.392Z,19.38
2022-07-29T02:03:04.031Z,19.39
2022-07-29T02:04:03.900Z,19.36
2022-07-29T02:05:04.440Z,19.35
2022-07-29T02:06:04.152Z,19.35
2022-07-29T02:07:04.232Z,19.32
2022-07-29T02:08:04.322Z,19.29
2022-07-29T02:09:04.356Z,19.32
2022-07-29T02:10:04.356Z,19.32
2022-07-29T02:11:03.915Z,19.31
2022-07-29T02:12:03.956Z,19.33
2022-07-29T02:13:03.306Z,19.35
2022-07-29T02:14:03.625Z,19.29
2022-07-29T02:15:03.946Z,19.28
2022-07-29T02:16:03.554Z,19.23
2022-07-29T02:17:04.144Z,19.20
2022-07-29T02:18:03.477Z,19.18
2022-07-29T02:19:03.807Z,19.18
2022-07-29T02:20:04.080Z,19.17
2022-07-29T02:21:03.685Z,19.10
2022-07-29T02:22:04.610Z,19.10
2022-07-29T02:23:04.276Z,19.08
2022-07-29T02:24:04.475Z,19.08
2022-07-29T02:25:04.228Z,19.06
2022-07-29T02:26:04.517Z,19.05
2022-07-29T02:27:03.259Z,19.01
2022-07-29T02:28:03.559Z,18.97
2022-07-29T02:29:03.849Z,18.98
2022-07-29T02:30:03.445Z,18.95
2022-07-29T02:31:03.868Z,18.90
2022-07-29T02:32:03.524Z,18.87
2022-07-29T02:33:04.175Z,18.86
2022-07-29T02:34:03.894Z,18.83
2022-07-29T02:35:03.578Z,18.79
2022-07-29T02:36:03.946Z,18.82
2022-07-29T02:37:03.716Z,18.83
2022-07-29T02:38:04.106Z,18.80
2022-07-29T02:39:03.655Z,18.77
2022-07-29T02:40:03.994Z,18.76
2022-07-29T02:41:04.326Z,18.80
2022-07-29T02:42:04.017Z,18.72
2022-07-29T02:43:04.003Z,18.70
2022-07-29T02:44:04.264Z,18.67
2022-07-29T02:45:04.536Z,18.70
2022-07-29T02:46:04.130Z,18.70
2022-07-29T02:47:03.780Z,18.72
2022-07-29T02:48:03.452Z,18.67
2022-07-29T02:49:03.929Z,18.67
2022-07-29T02:50:03.587Z,18.67
2022-07-29T02:51:03.902Z,18.62
2022-07-29T02:52:03.547Z,18.61
2022-07-29T02:53:03.885Z,18.58
2022-07-29T02:54:03.474Z,18.54
2022-07-29T02:55:03.770Z,18.54
2022-07-29T02:56:03.966Z,18.52
2022-07-29T02:57:04.133Z,18.52
2022-07-29T02:58:04.362Z,18.54
2022-07-29T02:59:04.021Z,18.50
2022-07-29T03:00:04.407Z,18.49
2022-07-29T03:01:04.112Z,18.47
2022-07-29T03:02:03.456Z,18.46
2022-07-29T03:03:03.667Z,18.42
2022-07-29T03:04:03.916Z,18.39
2022-07-29T03:05:03.695Z,18.29
2022-07-29T03:06:04.003Z,18.27
2022-07-29T03:07:03.549Z,18.27
2022-07-29T03:08:03.587Z,18.24
2022-07-29T03:09:06.720Z,18.15
2022-07-29T03:10:04.146Z,18.12
2022-07-29T03:11:04.031Z,18.13
2022-07-29T03:12:03.285Z,18.13
2022-07-29T03:13:03.448Z,18.10
2022-07-29T03:14:03.656Z,18.10
2022-07-29T03:15:03.787Z,18.10
2022-07-29T03:16:03.397Z,18.10
2022-07-29T03:17:03.847Z,18.12
2022-07-29T03:18:03.955Z,18.12
2022-07-29T03:19:03.876Z,18.12
2022-07-29T03:20:04.257Z,18.10
2022-07-29T03:21:03.833Z,18.09
2022-07-29T03:22:03.240Z,18.09
2022-07-29T03:23:03.433Z,18.13
2022-07-29T03:24:06.854Z,18.15
2022-07-29T03:25:03.488Z,18.10
2022-07-29T03:26:03.229Z,18.10
2022-07-29T03:27:03.544Z,18.10
2022-07-29T03:28:03.559Z,18.10
2022-07-29T03:29:03.901Z,18.12
2022-07-29T03:30:03.554Z,18.13
2022-07-29T03:31:03.937Z,18.17
2022-07-29T03:32:03.264Z,18.13
2022-07-29T03:33:03.605Z,18.12
2022-07-29T03:34:03.329Z,18.06
2022-07-29T03:35:03.102Z,18.02
2022-07-29T03:36:03.558Z,17.99
2022-07-29T03:37:03.873Z,17.99
2022-07-29T03:38:04.147Z,17.92
2022-07-29T03:39:04.249Z,17.92
2022-07-29T03:40:03.585Z,17.94
2022-07-29T03:41:04.041Z,17.92
2022-07-29T03:42:03.344Z,17.92
2022-07-29T03:43:03.720Z,17.91
2022-07-29T03:44:03.518Z,17.94
2022-07-29T03:45:03.184Z,17.91
2022-07-29T03:46:03.291Z,17.92
2022-07-29T03:47:03.705Z,17.94
2022-07-29T03:48:03.574Z,17.94
2022-07-29T03:49:03.411Z,17.94
2022-07-29T03:50:03.745Z,17.94
2022-07-29T03:51:03.978Z,17.95
2022-07-29T03:52:04.339Z,17.94
2022-07-29T03:53:04.130Z,17.92
2022-07-29T03:54:09.517Z,17.95
2022-07-29T03:55:04.318Z,17.92
2022-07-29T03:56:04.008Z,17.94
2022-07-29T03:57:04.399Z,17.97
2022-07-29T03:58:04.096Z,17.99
2022-07-29T03:59:04.393Z,18.02
2022-07-29T04:00:04.080Z,18.03
2022-07-29T04:01:04.086Z,18.04
2022-07-29T04:02:03.682Z,18.00
2022-07-29T04:03:03.507Z,18.00
2022-07-29T04:04:03.960Z,18.00
2022-07-29T04:05:03.702Z,18.02
2022-07-29T04:06:03.428Z,18.03
2022-07-29T04:07:03.817Z,18.06
2022-07-29T04:08:03.688Z,18.09
2022-07-29T04:09:03.419Z,18.10
2022-07-29T04:10:03.805Z,18.07
2022-07-29T04:11:03.504Z,18.07
2022-07-29T04:12:04.476Z,18.07
2022-07-29T04:13:04.095Z,18.09
2022-07-29T04:14:03.801Z,18.10
2022-07-29T04:15:03.538Z,18.12
2022-07-29T04:16:04.011Z,18.12
2022-07-29T04:17:03.483Z,18.10
2022-07-29T04:18:03.155Z,18.10
2022-07-29T04:19:03.311Z,18.12
2022-07-29T04:20:03.283Z,18.09
2022-07-29T04:21:03.074Z,18.07
2022-07-29T04:22:03.338Z,18.07
2022-07-29T04:23:03.070Z,18.07
2022-07-29T04:24:03.488Z,18.06
2022-07-29T04:25:04.170Z,18.06
2022-07-29T04:26:03.418Z,18.06
2022-07-29T04:27:03.906Z,18.04
2022-07-29T04:28:03.770Z,18.09
2022-07-29T04:29:03.616Z,18.09
2022-07-29T04:30:04.062Z,18.12
2022-07-29T04:31:03.704Z,18.12
2022-07-29T04:32:03.093Z,18.15
2022-07-29T04:33:02.997Z,18.17
2022-07-29T04:34:02.828Z,18.18
2022-07-29T04:35:03.071Z,18.19
2022-07-29T04:36:02.668Z,18.19
2022-07-29T04:37:03.578Z,18.22
2022-07-29T04:38:03.299Z,18.22
2022-07-29T04:39:03.639Z,18.25
2022-07-29T04:40:03.227Z,18.27
2022-07-29T04:41:03.640Z,18.25
2022-07-29T04:42:04.035Z,18.27
2022-07-29T04:43:05.889Z,18.27
2022-07-29T04:44:03.690Z,18.27
2022-07-29T04:45:03.831Z,18.28
2022-07-29T04:46:03.585Z,18.31
2022-07-29T04:47:04.066Z,18.31
2022-07-29T04:48:03.856Z,18.29
2022-07-29T04:49:03.674Z,18.28
2022-07-29T04:50:04.042Z,18.28
2022-07-29T04:51:03.856Z,18.31
2022-07-29T04:52:03.315Z,18.31
2022-07-29T04:53:03.026Z,18.33
2022-07-29T04:54:02.805Z,18.31
2022-07-29T04:55:03.249Z,18.34
2022-07-29T04:56:03.066Z,18.36
2022-07-29T04:57:03.526Z,18.37
2022-07-29T04:58:03.290Z,18.34
2022-07-29T04:59:03.046Z,18.34
2022-07-29T05:00:03.424Z,18.33
2022-07-29T05:01:03.212Z,18.34
2022-07-29T05:02:03.605Z,18.31
2022-07-29T05:03:03.764Z,18.29
2022-07-29T05:04:03.492Z,18.34
2022-07-29T05:05:03.384Z,18.33
2022-07-29T05:06:03.198Z,18.31
2022-07-29T05:07:02.702Z,18.36
2022-07-29T05:08:03.156Z,18.36
2022-07-29T05:09:03.041Z,18.36
2022-07-29T05:10:02.706Z,18.36
2022-07-29T05:11:12.463Z,18.39
2022-07-29T05:12:03.367Z,18.40
2022-07-29T05:13:03.198Z,18.42
2022-07-29T05:14:02.907Z,18.37
2022-07-29T05:15:03.092Z,18.31
2022-07-29T05:16:03.448Z,18.31
2022-07-29T05:17:02.532Z,18.37
2022-07-29T05:18:03.078Z,18.39
2022-07-29T05:19:03.082Z,18.42
2022-07-29T05:20:02.764Z,18.46
2022-07-29T05:21:02.521Z,18.46
2022-07-29T05:22:02.872Z,18.47
2022-07-29T05:23:03.382Z,18.55
2022-07-29T05:24:03.207Z,18.61
2022-07-29T05:25:08.520Z,18.65
2022-07-29T05:26:02.796Z,18.65
2022-07-29T05:27:03.489Z,18.72
2022-07-29T05:28:03.618Z,18.76
2022-07-29T05:29:03.843Z,18.80
2022-07-29T05:30:03.643Z,18.87
2022-07-29T05:31:03.816Z,18.95
2022-07-29T05:32:02.548Z,19.08
2022-07-29T05:33:02.725Z,19.11
2022-07-29T05:34:02.592Z,19.14
2022-07-29T05:35:03.122Z,19.20
2022-07-29T05:36:02.951Z,19.25
2022-07-29T05:37:02.773Z,19.31
2022-07-29T05:38:02.883Z,19.39
2022-07-29T05:39:03.144Z,19.47
2022-07-29T05:40:02.921Z,19.50
2022-07-29T05:41:02.745Z,19.55
2022-07-29T05:42:03.739Z,19.58
2022-07-29T05:43:03.516Z,19.66
2022-07-29T05:44:03.287Z,19.72
2022-07-29T05:45:03.139Z,19.76
2022-07-29T05:46:03.541Z,19.83
2022-07-29T05:47:03.365Z,19.88
2022-07-29T05:48:03.252Z,19.98
2022-07-29T05:49:03.881Z,20.09
2022-07-29T05:50:03.682Z,20.20
2022-07-29T05:51:03.494Z,20.28
2022-07-29T05:52:03.488Z,20.33
2022-07-29T05:53:20.158Z,20.39
2022-07-29T05:54:03.817Z,20.46
2022-07-29T05:55:03.591Z,20.51
2022-07-29T05:56:03.389Z,20.59
2022-07-29T05:57:03.322Z,20.64
2022-07-29T05:58:02.774Z,20.71
2022-07-29T05:59:03.312Z,20.79
2022-07-29T06:00:02.966Z,20.81
2022-07-29T06:01:03.145Z,20.87
2022-07-29T06:02:02.581Z,20.91
2022-07-29T06:03:03.000Z,21.01
2022-07-29T06:04:02.773Z,21.08
2022-07-29T06:05:02.575Z,21.14
2022-07-29T06:06:02.709Z,21.19
2022-07-29T06:07:03.179Z,21.24
2022-07-29T06:08:03.417Z,21.34
2022-07-29T06:09:12.575Z,21.41
2022-07-29T06:10:03.412Z,21.44
2022-07-29T06:11:03.455Z,21.50
2022-07-29T06:12:03.277Z,21.56
2022-07-29T06:13:03.631Z,21.60
2022-07-29T06:14:03.422Z,21.66
2022-07-29T06:15:03.566Z,21.67
2022-07-29T06:16:03.347Z,21.74
2022-07-29T06:17:03.601Z,21.79
2022-07-29T06:18:03.626Z,21.83
2022-07-29T06:19:03.886Z,21.88
2022-07-29T06:20:03.530Z,21.88
2022-07-29T06:21:04.035Z,21.92
2022-07-29T06:22:02.917Z,21.91
2022-07-29T06:23:02.675Z,21.92
2022-07-29T06:24:02.767Z,21.95
2022-07-29T06:25:02.782Z,21.98
2022-07-29T06:26:03.268Z,21.98
2022-07-29T06:27:03.227Z,22.04
2022-07-29T06:28:03.196Z,22.10
2022-07-29T06:29:03.076Z,22.14
2022-07-29T06:30:03.282Z,22.17
2022-07-29T06:31:03.329Z,22.23
2022-07-29T06:32:03.242Z,22.27
2022-07-29T06:33:03.269Z,22.32
2022-07-29T06:34:03.530Z,22.39
2022-07-29T06:35:33.027Z,22.46
2022-07-29T06:36:03.087Z,22.49
2022-07-29T06:37:03.413Z,22.52
2022-07-29T06:38:03.326Z,22.59
2022-07-29T06:39:12.230Z,22.68
2022-07-29T06:40:03.249Z,22.74
2022-07-29T06:41:03.354Z,22.80
2022-07-29T06:42:03.042Z,22.84
2022-07-29T06:43:02.824Z,22.90
2022-07-29T06:44:03.253Z,22.99
2022-07-29T06:45:06.217Z,23.04
2022-07-29T06:46:02.823Z,23.04
2022-07-29T06:47:03.237Z,23.07
2022-07-29T06:48:03.240Z,23.08
2022-07-29T06:49:03.322Z,23.12
2022-07-29T06:50:03.240Z,23.22
2022-07-29T06:51:03.237Z,23.27
2022-07-29T06:52:03.428Z,23.38
2022-07-29T06:53:03.481Z,23.46
2022-07-29T06:54:03.899Z,23.57
2022-07-29T06:55:03.066Z,23.67
2022-07-29T06:56:03.485Z,23.75
2022-07-29T06:57:03.121Z,23.82
2022-07-29T06:58:02.975Z,23.87
2022-07-29T06:59:03.517Z,23.94
2022-07-29T07:00:03.385Z,23.98
2022-07-29T07:01:03.135Z,24.02
2022-07-29T07:02:03.049Z,24.04
2022-07-29T07:03:03.100Z,24.04
2022-07-29T07:04:03.506Z,24.02
2022-07-29T07:05:03.469Z,24.08
2022-07-29T07:06:03.237Z,24.13
2022-07-29T07:07:03.677Z,24.16
2022-07-29T07:08:03.429Z,24.19
2022-07-29T07:09:03.381Z,24.24
2022-07-29T07:10:03.942Z,24.26
2022-07-29T07:11:03.616Z,24.31
2022-07-29T07:12:04.335Z,24.35
2022-07-29T07:13:04.230Z,24.39
2022-07-29T07:14:04.445Z,24.41
2022-07-29T07:15:04.388Z,24.42
2022-07-29T07:16:03.823Z,24.45
2022-07-29T07:17:03.492Z,24.50
2022-07-29T07:18:03.421Z,24.50
2022-07-29T07:19:03.431Z,24.53
2022-07-29T07:20:03.329Z,24.57
2022-07-29T07:21:03.113Z,24.56
2022-07-29T07:22:03.289Z,24.57
2022-07-29T07:23:03.549Z,24.59
2022-07-29T07:24:03.160Z,24.56
2022-07-29T07:25:03.647Z,24.57
2022-07-29T07:26:03.489Z,24.54
2022-07-29T07:27:03.640Z,24.56
2022-07-29T07:28:04.025Z,24.56
2022-07-29T07:29:03.897Z,24.57
2022-07-29T07:30:03.990Z,24.59
2022-07-29T07:31:03.826Z,24.67
2022-07-29T07:32:04.123Z,24.68
2022-07-29T07:33:03.896Z,24.71
2022-07-29T07:34:04.224Z,24.75
2022-07-29T07:35:04.136Z,24.79
2022-07-29T07:36:03.846Z,24.85
2022-07-29T07:37:04.187Z,24.88
2022-07-29T07:38:04.065Z,24.92
2022-07-29T07:39:04.445Z,24.97
2022-07-29T07:40:04.021Z,25.00
2022-07-29T07:41:03.917Z,25.06
2022-07-29T07:42:03.508Z,25.09
2022-07-29T07:43:03.321Z,25.16
2022-07-29T07:44:03.165Z,25.19
2022-07-29T07:45:13.378Z,25.22
2022-07-29T07:46:03.158Z,25.35
2022-07-29T07:47:03.956Z,25.50
2022-07-29T07:48:03.610Z,25.62
2022-07-29T07:49:03.530Z,25.65
2022-07-29T07:50:03.589Z,25.71
2022-07-29T07:51:03.678Z,25.80
2022-07-29T07:52:04.258Z,25.90
2022-07-29T07:53:04.123Z,25.94
2022-07-29T07:54:04.363Z,26.02
2022-07-29T07:55:04.351Z,26.06
2022-07-29T07:56:12.539Z,26.11
2022-07-29T07:57:04.457Z,26.17
2022-07-29T07:58:04.321Z,26.18
2022-07-29T07:59:04.197Z,26.21
2022-07-29T08:00:04.149Z,26.18
2022-07-29T08:01:04.144Z,26.18
2022-07-29T08:02:03.956Z,26.21
2022-07-29T08:03:03.830Z,26.25
2022-07-29T08:04:03.619Z,26.28
2022-07-29T08:05:03.657Z,26.31
2022-07-29T08:06:03.475Z,26.32
2022-07-29T08:07:03.869Z,26.32
2022-07-29T08:08:03.385Z,26.29
2022-07-29T08:09:27.811Z,26.35
2022-07-29T08:10:03.960Z,26.32
2022-07-29T08:11:08.563Z,26.36
2022-07-29T08:12:03.367Z,26.37
2022-07-29T08:13:03.046Z,26.42
2022-07-29T08:14:02.875Z,26.44
2022-07-29T08:15:02.890Z,26.46
2022-07-29T08:16:03.010Z,26.52
2022-07-29T08:17:03.980Z,26.54
2022-07-29T08:18:08.463Z,26.55
2022-07-29T08:19:03.869Z,26.55
2022-07-29T08:20:03.760Z,26.59
2022-07-29T08:21:03.759Z,26.61
2022-07-29T08:22:03.232Z,26.64
2022-07-29T08:23:03.353Z,26.69
2022-07-29T08:24:07.303Z,26.67
2022-07-29T08:25:02.931Z,26.74
2022-07-29T08:26:03.301Z,26.77
2022-07-29T08:27:03.627Z,26.81
2022-07-29T08:28:03.578Z,26.87
2022-07-29T08:29:03.094Z,26.92
2022-07-29T08:30:02.986Z,26.99
2022-07-29T08:31:03.627Z,27.10
2022-07-29T08:32:03.385Z,27.16
2022-07-29T08:33:03.825Z,27.28
2022-07-29T08:34:03.320Z,27.38
2022-07-29T08:35:03.966Z,27.48
2022-07-29T08:36:03.743Z,27.59
2022-07-29T08:37:04.290Z,27.67
2022-07-29T08:38:03.990Z,27.67
2022-07-29T08:39:04.210Z,27.73
2022-07-29T08:40:04.177Z,27.73
2022-07-29T08:41:03.750Z,27.80
2022-07-29T08:42:03.444Z,27.85
2022-07-29T08:43:03.817Z,27.88
2022-07-29T08:44:03.878Z,27.94
2022-07-29T08:45:03.823Z,27.94
2022-07-29T08:46:03.912Z,27.96
2022-07-29T08:47:03.008Z,28.04
2022-07-29T08:48:03.492Z,28.11
2022-07-29T08:49:02.946Z,28.21
2022-07-29T08:50:02.948Z,28.19
2022-07-29T08:51:04.388Z,28.22
2022-07-29T08:52:03.250Z,28.29
2022-07-29T08:53:03.826Z,28.38
2022-07-29T08:54:03.472Z,28.43
2022-07-29T08:55:03.845Z,28.51
2022-07-29T08:56:03.910Z,28.59
2022-07-29T08:57:03.799Z,28.68
2022-07-29T08:58:04.292Z,28.72
2022-07-29T08:59:04.782Z,28.72
2022-07-29T09:00:08.117Z,28.73
2022-07-29T09:01:04.348Z,28.73
2022-07-29T09:02:03.344Z,28.82
2022-07-29T09:03:03.309Z,28.90
2022-07-29T09:04:03.700Z,29.00
2022-07-29T09:05:03.509Z,29.03
2022-07-29T09:06:03.361Z,29.08
2022-07-29T09:07:03.718Z,29.11
2022-07-29T09:08:03.697Z,29.13
2022-07-29T09:09:04.102Z,29.18
2022-07-29T09:10:04.211Z,29.18
2022-07-29T09:11:04.164Z,29.25
2022-07-29T09:12:03.364Z,29.31
2022-07-29T09:13:03.643Z,29.37
2022-07-29T09:14:03.452Z,29.41
2022-07-29T09:15:03.348Z,29.52
2022-07-29T09:16:08.589Z,29.65
2022-07-29T09:17:03.700Z,29.75
2022-07-29T09:18:03.765Z,29.87
2022-07-29T09:19:03.960Z,29.90
2022-07-29T09:20:03.961Z,29.97
2022-07-29T09:21:03.839Z,30.11
2022-07-29T09:22:04.208Z,30.15
2022-07-29T09:23:04.014Z,30.18
2022-07-29T09:24:03.972Z,30.21
2022-07-29T09:25:04.044Z,30.14
2022-07-29T09:26:03.975Z,30.09
2022-07-29T09:27:03.384Z,30.09
2022-07-29T09:28:03.860Z,30.09
2022-07-29T09:29:03.765Z,30.00
2022-07-29T09:30:03.828Z,29.90
2022-07-29T09:31:03.806Z,29.86
2022-07-29T09:32:04.220Z,29.89
2022-07-29T09:33:04.120Z,29.82
2022-07-29T09:34:04.047Z,29.77
2022-07-29T09:35:04.039Z,29.86
2022-07-29T09:36:04.445Z,29.90
2022-07-29T09:37:04.010Z,30.00
2022-07-29T09:38:03.538Z,30.05
2022-07-29T09:39:04.052Z,30.15
2022-07-29T09:40:03.664Z,30.16
2022-07-29T09:41:06.205Z,30.23
2022-07-29T09:42:04.420Z,30.24
2022-07-29T09:43:04.433Z,30.31
2022-07-29T09:44:04.340Z,30.34
2022-07-29T09:45:04.465Z,30.43
2022-07-29T09:46:05.610Z,30.46
2022-07-29T09:47:04.059Z,30.46
2022-07-29T09:48:03.885Z,30.26
2022-07-29T09:49:03.880Z,30.14
2022-07-29T09:50:03.788Z,30.11
2022-07-29T09:51:04.018Z,30.21
2022-07-29T09:52:04.605Z,30.23
2022-07-29T09:53:04.501Z,30.15
2022-07-29T09:54:04.759Z,30.14
2022-07-29T09:55:04.407Z,30.23
2022-07-29T09:56:04.996Z,30.27
2022-07-29T09:57:04.046Z,30.34
2022-07-29T09:58:03.621Z,30.33
2022-07-29T09:59:04.160Z,30.38
2022-07-29T10:00:03.890Z,30.46
2022-07-29T10:01:04.184Z,30.53
2022-07-29T10:02:03.210Z,30.57
2022-07-29T10:03:03.004Z,30.69
2022-07-29T10:04:03.009Z,30.80
2022-07-29T10:05:02.919Z,30.90
2022-07-29T10:06:03.474Z,30.94
2022-07-29T10:07:05.281Z,30.93
2022-07-29T10:08:02.853Z,30.98
2022-07-29T10:09:02.640Z,30.98
2022-07-29T10:10:02.522Z,30.96
2022-07-29T10:11:02.959Z,30.94
2022-07-29T10:12:03.641Z,30.94
2022-07-29T10:13:08.000Z,30.99
2022-07-29T10:14:03.731Z,31.02
2022-07-29T10:15:03.235Z,31.06
2022-07-29T10:16:03.381Z,31.09
2022-07-29T10:17:03.107Z,31.18
2022-07-29T10:18:03.144Z,31.21
2022-07-29T10:19:02.876Z,31.24
2022-07-29T10:20:02.758Z,31.30
2022-07-29T10:21:03.021Z,31.31
2022-07-29T10:22:03.898Z,31.31
2022-07-29T10:23:03.422Z,31.35
2022-07-29T10:24:03.377Z,31.33
2022-07-29T10:25:03.498Z,31.36
2022-07-29T10:26:03.475Z,31.33
2022-07-29T10:27:03.719Z,31.35
2022-07-29T10:28:03.570Z,31.35
2022-07-29T10:29:03.400Z,31.33
2022-07-29T10:30:03.259Z,31.38
2022-07-29T10:31:03.855Z,31.46
2022-07-29T10:32:03.954Z,31.55
2022-07-29T10:33:03.823Z,31.61
2022-07-29T10:34:03.644Z,31.64
2022-07-29T10:35:03.513Z,31.76
2022-07-29T10:36:04.076Z,31.84
2022-07-29T10:37:03.664Z,31.87
2022-07-29T10:38:03.410Z,31.88
2022-07-29T10:39:03.443Z,31.93
2022-07-29T10:40:03.425Z,32.03
2022-07-29T10:41:03.232Z,32.03
2022-07-29T10:42:03.834Z,31.93
2022-07-29T10:43:03.483Z,31.91
2022-07-29T10:44:03.328Z,31.87
2022-07-29T10:45:04.216Z,31.80
2022-07-29T10:46:03.490Z,31.79
2022-07-29T10:47:04.011Z,31.84
2022-07-29T10:48:03.853Z,31.75
2022-07-29T10:49:03.669Z,31.70
2022-07-29T10:50:03.625Z,31.70
2022-07-29T10:51:03.997Z,31.70
2022-07-29T10:52:06.129Z,31.72
2022-07-29T10:53:03.576Z,31.72
2022-07-29T10:54:03.730Z,31.73
2022-07-29T10:55:03.556Z,31.70
2022-07-29T10:56:06.375Z,31.72
2022-07-29T10:57:03.966Z,31.72
2022-07-29T10:58:03.608Z,31.62
2022-07-29T10:59:03.428Z,31.62
2022-07-29T11:00:03.642Z,31.60
2022-07-29T11:01:03.979Z,31.64
2022-07-29T11:02:35.301Z,31.67
2022-07-29T11:03:04.570Z,31.72
2022-07-29T11:04:04.045Z,31.73
2022-07-29T11:05:04.450Z,31.79
2022-07-29T11:06:08.695Z,31.84
2022-07-29T11:07:03.967Z,31.91
2022-07-29T11:08:03.277Z,31.96
2022-07-29T11:09:03.413Z,32.05
2022-07-29T11:10:03.292Z,32.07
2022-07-29T11:11:03.862Z,32.14
2022-07-29T11:12:03.948Z,32.15
2022-07-29T11:13:04.076Z,32.03
2022-07-29T11:14:03.868Z,31.96
2022-07-29T11:15:03.882Z,31.87
2022-07-29T11:16:03.925Z,31.80
2022-07-29T11:17:06.541Z,31.75
2022-07-29T11:18:03.421Z,31.72
2022-07-29T11:19:03.265Z,31.72
2022-07-29T11:20:03.324Z,31.62
2022-07-29T11:21:03.412Z,31.46
2022-07-29T11:22:03.721Z,31.35
2022-07-29T11:23:04.187Z,31.31
2022-07-29T11:24:04.111Z,31.35
2022-07-29T11:25:04.098Z,31.35
2022-07-29T11:26:04.030Z,31.35
2022-07-29T11:27:04.181Z,31.36
2022-07-29T11:28:04.019Z,31.36
2022-07-29T11:29:04.340Z,31.38
2022-07-29T11:30:04.037Z,31.36
2022-07-29T11:31:04.160Z,31.36
2022-07-29T11:32:04.004Z,31.27
2022-07-29T11:33:04.473Z,31.11
2022-07-29T11:34:05.716Z,30.91
2022-07-29T11:36:04.391Z,30.72
2022-07-29T11:37:04.073Z,30.65
2022-07-29T11:38:03.829Z,30.65
2022-07-29T11:39:03.695Z,30.71
2022-07-29T11:40:03.684Z,30.74
2022-07-29T11:41:03.733Z,30.83
2022-07-29T11:42:05.259Z,30.90
2022-07-29T11:43:03.445Z,30.89
2022-07-29T11:44:03.922Z,30.87
2022-07-29T11:45:06.646Z,30.94
2022-07-29T11:46:03.507Z,31.01
2022-07-29T11:47:04.008Z,31.06
2022-07-29T11:48:27.974Z,31.17
2022-07-29T11:49:04.459Z,31.30
2022-07-29T11:50:04.437Z,31.38
2022-07-29T11:51:04.150Z,31.54
2022-07-29T11:52:04.890Z,31.61
2022-07-29T11:53:08.774Z,31.73
2022-07-29T11:54:05.286Z,31.77
2022-07-29T11:55:09.921Z,31.82
2022-07-29T11:56:03.951Z,31.76
2022-07-29T11:57:03.854Z,31.73
2022-07-29T11:58:04.861Z,31.76
2022-07-29T11:59:04.771Z,31.84
2022-07-29T12:00:10.014Z,31.84
2022-07-29T12:01:05.492Z,31.88
2022-07-29T12:02:36.292Z,32.00
2022-07-29T12:03:04.108Z,32.13
2022-07-29T12:04:04.134Z,32.25
2022-07-29T12:05:10.404Z,32.36
2022-07-29T12:06:03.527Z,32.42
2022-07-29T12:07:03.521Z,30.83
2022-07-29T12:07:04.742Z,32.48
2022-07-29T12:08:03.201Z,32.57
2022-07-29T12:09:03.172Z,32.67
2022-07-29T12:10:03.745Z,32.77
2022-07-29T12:11:03.604Z,32.88
2022-07-29T12:12:05.331Z,32.92
2022-07-29T12:13:03.923Z,32.92
2022-07-29T12:14:04.027Z,32.89
2022-07-29T12:15:04.076Z,32.84
2022-07-29T12:16:04.301Z,32.74
2022-07-29T12:17:03.622Z,32.73
2022-07-29T12:18:04.067Z,32.81
2022-07-29T12:19:03.343Z,32.91
2022-07-29T12:20:03.224Z,32.93
2022-07-29T12:21:03.892Z,32.99
2022-07-29T12:22:04.299Z,33.06
2022-07-29T12:23:04.215Z,33.06
2022-07-29T12:24:05.739Z,33.04
2022-07-29T12:25:30.309Z,33.03
2022-07-29T12:26:04.125Z,33.07
2022-07-29T12:27:04.441Z,33.04
2022-07-29T12:28:04.211Z,32.98
2022-07-29T12:29:04.395Z,33.01
2022-07-29T12:30:04.095Z,33.04
2022-07-29T12:31:04.499Z,33.04
2022-07-29T12:32:04.990Z,33.06
2022-07-29T12:33:03.448Z,33.03
2022-07-29T12:34:03.735Z,32.99
2022-07-29T12:35:03.814Z,32.98
2022-07-29T12:36:07.253Z,32.93
2022-07-29T12:37:03.835Z,32.89
2022-07-29T12:38:04.061Z,32.89
2022-07-29T12:39:04.018Z,32.98
2022-07-29T12:40:03.829Z,33.04
2022-07-29T12:41:04.531Z,33.03
2022-07-29T12:42:05.126Z,32.98
2022-07-29T12:43:04.124Z,32.93
2022-07-29T12:44:04.203Z,32.86
2022-07-29T12:45:04.413Z,32.79
2022-07-29T12:46:04.348Z,32.84
2022-07-29T12:47:04.367Z,32.77
2022-07-29T12:48:04.555Z,32.67
2022-07-29T12:49:04.710Z,32.59
2022-07-29T12:50:04.663Z,32.43
2022-07-29T12:51:04.532Z,32.36
2022-07-29T12:52:04.398Z,32.43